Oronoco, Minnesota
Current Conditions -  °F | °C
As of 12:53 PM on Sunday 23 Nov 2014 (Local Time) from K9MN Reporting Station
Overcast Overcast  
Wind Chill: 47°   Ceiling: 300
Heat Index: 50°   Visibility: 0.75mi
Dew Point: 49°   Wind: 7mph
Humidity: 99%   Direction: 130°SE
Pressure: 29.4"   Gusts: NA
Location:  44.17°N, 92.53°W
Report Text: K9MN 231853Z AUTO 13006KT 3/4SM OVC003 10/10 A2940 RMK AO1 T00980096
Loading
Personal Weather Stations






























Interactive Weather Map New forecast layout! Learn more

10-Day Weather Forecast

Advertisements
Track Severe Weather on mobile